Impacts TAF Board INFO
FOR SITUATIONAL AWARENESS. NOT TO BE USED FOR FLIGHT PLANNING PURPOSES.
IDs:

KFLL - Ft Lauderdale-Hollyw, FL, US

Issued at 1120 UTC 19 Nov 2017
Updated at 1409 UTC 19 Nov 2017
Potential Impact None Slight Moderate High
Time<<20/15Z 20/16Z 20/17Z 20/18Z 20/19Z 20/20Z 20/21Z 20/22Z 20/23Z 21/00Z 21/01Z 21/02Z 21/03Z
Type PRVL PRVL PRVL
VIS >6 >6 >6
CIG 40 40 40
Cover BKN BKN BKN
FltCat VFR VFR VFR
WX -- -- --
WDir 20 20 20
WSpd 12 12 12
WGst -- -- --

Raw TAF
KFLL 191120Z 1912/2018 31005KT P6SM SKC
  FM191400 29008KT P6SM FEW040
  FM200300 32005KT P6SM SCT020 SCT040
  FM200900 02012KT P6SM SCT020 BKN040


METAR Board
Radar Display
Forecast Discussion

FOR SITUATIONAL AWARENESS. NOT TO BE USED FOR FLIGHT PLANNING PURPOSES.